createdAt,value
2022-12-27T00:00:17.278Z,13.40
2022-12-27T00:03:06.086Z,12.90
2022-12-27T00:05:34.782Z,12.30
2022-12-27T00:08:03.810Z,12.50
2022-12-27T00:10:32.903Z,12.70
2022-12-27T00:13:05.468Z,14.80
2022-12-27T00:15:35.840Z,13.90
2022-12-27T00:18:05.097Z,13.80
2022-12-27T00:20:33.815Z,13.80
2022-12-27T00:23:03.454Z,13.10
2022-12-27T00:25:32.098Z,13.80
2022-12-27T00:28:00.856Z,13.40
2022-12-27T00:30:29.476Z,13.30
2022-12-27T00:32:58.232Z,13.30
2022-12-27T00:35:26.875Z,13.10
2022-12-27T00:37:55.496Z,12.70
2022-12-27T00:40:24.398Z,13.20
2022-12-27T00:42:53.140Z,13.40
2022-12-27T00:45:22.029Z,13.30
2022-12-27T00:47:50.954Z,13.70
2022-12-27T00:50:19.553Z,14.50
2022-12-27T00:52:48.269Z,14.00
2022-12-27T00:55:17.429Z,14.00
2022-12-27T00:57:46.107Z,13.20
2022-12-27T01:00:16.092Z,12.90
2022-12-27T01:02:44.754Z,12.30
2022-12-27T01:07:43.217Z,12.60
2022-12-27T01:10:12.407Z,13.10
2022-12-27T01:12:41.509Z,12.80
2022-12-27T01:15:11.255Z,13.40
2022-12-27T01:17:40.228Z,13.50
2022-12-27T01:20:09.771Z,13.30
2022-12-27T01:22:38.394Z,13.10
2022-12-27T01:25:08.065Z,13.10
2022-12-27T01:30:09.755Z,12.20
2022-12-27T01:32:38.468Z,12.20
2022-12-27T01:35:07.975Z,11.70
2022-12-27T01:37:36.730Z,12.10
2022-12-27T01:40:06.886Z,11.80
2022-12-27T01:42:54.089Z,13.10
2022-12-27T01:45:24.108Z,13.50
2022-12-27T01:48:15.047Z,12.00
2022-12-27T01:51:03.973Z,12.80
2022-12-27T01:53:42.183Z,12.00
2022-12-27T01:56:24.181Z,13.30
2022-12-27T01:59:09.560Z,12.90
2022-12-27T02:01:47.320Z,13.00
2022-12-27T02:04:21.401Z,11.60
2022-12-27T02:06:51.412Z,12.20
2022-12-27T02:09:48.658Z,13.20
2022-12-27T02:12:20.500Z,12.30
2022-12-27T02:14:50.421Z,13.10
2022-12-27T02:17:31.900Z,12.80
2022-12-27T02:20:23.121Z,12.80
2022-12-27T02:23:58.164Z,12.10
2022-12-27T02:26:48.285Z,13.40
2022-12-27T02:29:48.009Z,12.80
2022-12-27T02:32:59.313Z,12.00
2022-12-27T02:35:37.111Z,12.00
2022-12-27T02:38:40.269Z,12.30
2022-12-27T02:41:30.733Z,12.90
2022-12-27T02:44:18.255Z,12.90
2022-12-27T02:47:06.785Z,12.40
2022-12-27T02:49:57.109Z,12.90
2022-12-27T02:53:10.129Z,12.80
2022-12-27T02:56:54.812Z,12.00
2022-12-27T03:00:29.453Z,11.50
2022-12-27T03:03:29.289Z,11.90
2022-12-27T03:06:31.935Z,12.30
2022-12-27T03:10:05.155Z,13.30
2022-12-27T03:13:04.931Z,13.60
2022-12-27T03:15:59.362Z,12.50
2022-12-27T03:18:28.162Z,12.30
2022-12-27T03:21:18.708Z,12.70
2022-12-27T03:24:08.262Z,12.80
2022-12-27T03:26:40.008Z,12.30
2022-12-27T03:29:28.538Z,11.80
2022-12-27T03:32:21.270Z,11.70
2022-12-27T03:35:20.008Z,12.60
2022-12-27T03:38:04.283Z,12.70
2022-12-27T03:41:34.643Z,13.20
2022-12-27T03:44:23.571Z,13.90
2022-12-27T03:47:13.285Z,13.00
2022-12-27T03:49:50.741Z,12.30
2022-12-27T03:52:35.095Z,13.10
2022-12-27T03:55:05.487Z,11.70
2022-12-27T03:57:34.460Z,11.90
2022-12-27T04:00:06.061Z,13.00
2022-12-27T04:02:42.071Z,12.30
2022-12-27T04:05:12.140Z,13.70
2022-12-27T04:07:59.502Z,13.60
2022-12-27T04:10:46.766Z,14.00
2022-12-27T04:13:33.918Z,12.80
2022-12-27T04:16:21.330Z,14.10
2022-12-27T04:19:10.801Z,12.70
2022-12-27T04:21:58.224Z,12.60
2022-12-27T04:24:45.659Z,13.80
2022-12-27T04:27:33.085Z,14.10
2022-12-27T04:30:20.402Z,14.40
2022-12-27T04:33:07.827Z,13.50
2022-12-27T04:35:36.506Z,14.20
2022-12-27T04:38:05.504Z,13.90
2022-12-27T04:40:54.391Z,14.20
2022-12-27T04:43:41.684Z,13.30
2022-12-27T04:46:51.066Z,13.10
2022-12-27T04:49:43.752Z,12.60
2022-12-27T04:52:41.228Z,12.30
2022-12-27T04:55:15.540Z,13.20
2022-12-27T04:57:44.440Z,12.50
2022-12-27T05:00:33.456Z,12.80
2022-12-27T05:03:10.525Z,13.70
2022-12-27T05:05:39.855Z,13.90
2022-12-27T05:08:28.141Z,14.30
2022-12-27T05:11:15.245Z,13.50
2022-12-27T05:14:02.707Z,13.90
2022-12-27T05:16:37.234Z,13.40
2022-12-27T05:19:08.647Z,12.30
2022-12-27T05:22:03.377Z,12.60
2022-12-27T05:24:51.285Z,13.70
2022-12-27T05:27:19.864Z,13.70
2022-12-27T05:29:48.647Z,14.10
2022-12-27T05:32:17.440Z,15.10
2022-12-27T05:34:47.418Z,13.50
2022-12-27T05:37:16.269Z,13.00
2022-12-27T05:39:44.880Z,13.10
2022-12-27T05:42:13.642Z,13.40
2022-12-27T05:44:42.397Z,12.80
2022-12-27T05:49:40.353Z,13.40
2022-12-27T05:52:09.070Z,13.30
2022-12-27T05:54:37.852Z,13.70
2022-12-27T05:57:06.541Z,15.00
2022-12-27T05:59:35.225Z,15.10
2022-12-27T06:02:04.405Z,14.80
2022-12-27T06:04:33.318Z,13.90
2022-12-27T06:07:02.632Z,14.00
2022-12-27T06:09:35.515Z,13.50
2022-12-27T06:12:04.688Z,13.90
2022-12-27T06:14:33.470Z,12.50
2022-12-27T06:17:05.041Z,12.40
2022-12-27T06:19:34.886Z,14.00
2022-12-27T06:22:03.774Z,14.20
2022-12-27T06:24:32.441Z,14.00
2022-12-27T06:27:01.229Z,13.30
2022-12-27T06:29:29.929Z,14.70
2022-12-27T06:31:58.808Z,14.30
2022-12-27T06:34:27.838Z,13.60
2022-12-27T06:36:58.001Z,12.80
2022-12-27T06:39:27.628Z,12.20
2022-12-27T06:41:56.531Z,12.80
2022-12-27T06:44:26.561Z,12.80
2022-12-27T06:46:55.321Z,13.50
2022-12-27T06:49:24.823Z,13.90
2022-12-27T06:51:59.319Z,13.90
2022-12-27T06:54:29.611Z,15.10
2022-12-27T06:56:58.477Z,14.30
2022-12-27T06:59:28.313Z,14.60
2022-12-27T07:01:57.008Z,13.20
2022-12-27T07:04:26.050Z,14.60
2022-12-27T07:06:54.755Z,14.00
2022-12-27T07:09:23.441Z,13.70
2022-12-27T07:11:54.356Z,14.90
2022-12-27T07:14:23.059Z,14.60
2022-12-27T07:16:51.559Z,14.40
2022-12-27T07:19:20.219Z,14.80
2022-12-27T07:21:49.101Z,14.70
2022-12-27T07:24:17.753Z,14.70
2022-12-27T07:26:46.364Z,12.90
2022-12-27T07:29:15.256Z,14.20
2022-12-27T07:31:44.103Z,12.70
2022-12-27T07:34:13.153Z,13.20
2022-12-27T07:36:42.242Z,14.50
2022-12-27T07:39:11.124Z,13.70
2022-12-27T07:41:39.916Z,14.60
2022-12-27T07:44:10.444Z,13.60
2022-12-27T07:46:40.236Z,14.80
2022-12-27T07:49:17.371Z,15.40
2022-12-27T07:51:46.665Z,13.90
2022-12-27T07:54:15.281Z,14.20
2022-12-27T07:56:43.882Z,13.60
2022-12-27T07:59:13.639Z,13.30
2022-12-27T08:02:00.954Z,14.40
2022-12-27T08:04:29.863Z,14.40
2022-12-27T08:07:29.182Z,14.50
2022-12-27T08:09:58.031Z,14.60
2022-12-27T08:12:26.827Z,14.40
2022-12-27T08:14:55.539Z,15.60
2022-12-27T08:17:28.001Z,15.00
2022-12-27T08:19:59.216Z,14.90
2022-12-27T08:22:29.132Z,14.60
2022-12-27T08:24:57.731Z,14.60
2022-12-27T08:27:26.467Z,15.20
2022-12-27T08:29:55.129Z,15.40
2022-12-27T08:32:24.229Z,15.00
2022-12-27T08:34:52.974Z,14.50
2022-12-27T08:37:22.632Z,15.30
2022-12-27T08:39:51.931Z,17.40
2022-12-27T08:42:20.569Z,15.50
2022-12-27T08:44:49.394Z,14.00
2022-12-27T08:47:19.793Z,14.30
2022-12-27T08:49:48.386Z,14.50
2022-12-27T08:52:17.576Z,14.80
2022-12-27T08:54:46.121Z,14.60
2022-12-27T08:57:15.605Z,15.00
2022-12-27T08:59:45.208Z,14.90
2022-12-27T09:02:14.950Z,14.80
2022-12-27T09:04:43.831Z,15.30
2022-12-27T09:07:12.378Z,14.90
2022-12-27T09:09:41.081Z,14.00
2022-12-27T09:12:09.791Z,16.10
2022-12-27T09:14:38.467Z,14.20
2022-12-27T09:17:09.634Z,15.60
2022-12-27T09:19:38.210Z,16.00
2022-12-27T09:22:06.872Z,16.40
2022-12-27T09:24:35.928Z,16.20
2022-12-27T09:27:04.591Z,17.20
2022-12-27T09:29:33.597Z,16.40
2022-12-27T09:32:02.277Z,17.90
2022-12-27T09:34:31.004Z,18.00
2022-12-27T09:36:59.633Z,17.30
2022-12-27T09:39:28.272Z,17.20
2022-12-27T09:42:56.220Z,17.10
2022-12-27T09:45:39.826Z,20.00
2022-12-27T09:48:18.305Z,18.30
2022-12-27T09:50:55.879Z,18.00
2022-12-27T09:53:44.782Z,17.40
2022-12-27T09:56:47.380Z,17.30
2022-12-27T09:59:29.191Z,17.30
2022-12-27T10:01:57.891Z,18.50
2022-12-27T10:04:45.220Z,17.50
2022-12-27T10:10:51.056Z,18.40
2022-12-27T10:13:44.354Z,16.80
2022-12-27T10:16:29.147Z,18.80
2022-12-27T10:19:39.013Z,16.40
2022-12-27T10:22:28.718Z,17.30
2022-12-27T10:25:01.576Z,16.80
2022-12-27T10:27:35.590Z,18.40
2022-12-27T10:30:15.079Z,18.10
2022-12-27T10:32:45.248Z,17.80
2022-12-27T10:35:18.628Z,18.70
2022-12-27T10:37:49.592Z,19.60
2022-12-27T10:40:36.764Z,19.00
2022-12-27T10:43:16.950Z,17.60
2022-12-27T10:45:45.958Z,17.30
2022-12-27T10:48:19.910Z,17.60
2022-12-27T10:51:18.516Z,17.40
2022-12-27T10:53:47.077Z,18.10
2022-12-27T10:56:21.409Z,18.20
2022-12-27T10:58:58.508Z,18.90
2022-12-27T11:01:32.685Z,19.20
2022-12-27T11:04:24.968Z,18.20
2022-12-27T11:07:05.205Z,19.50
2022-12-27T11:09:38.094Z,20.30
2022-12-27T11:12:21.953Z,24.30
2022-12-27T11:15:27.281Z,21.90
2022-12-27T11:18:00.790Z,21.50
2022-12-27T11:20:41.597Z,20.50
2022-12-27T11:23:10.117Z,21.40
2022-12-27T11:26:02.859Z,20.20
2022-12-27T11:28:43.307Z,19.10
2022-12-27T11:31:18.330Z,22.90
2022-12-27T11:33:48.095Z,18.30
2022-12-27T11:36:41.140Z,18.70
2022-12-27T11:39:39.204Z,20.00
2022-12-27T11:42:38.670Z,21.50
2022-12-27T11:48:11.105Z,22.20
2022-12-27T11:51:04.519Z,21.40
2022-12-27T11:54:08.495Z,22.00
2022-12-27T11:56:44.094Z,22.90
2022-12-27T11:59:47.922Z,22.80
2022-12-27T12:02:29.846Z,22.50
2022-12-27T12:05:44.247Z,22.60
2022-12-27T12:09:05.828Z,24.70
2022-12-27T12:12:05.055Z,24.20
2022-12-27T12:14:58.022Z,24.20
2022-12-27T12:17:36.122Z,26.40
2022-12-27T12:20:31.209Z,26.30
2022-12-27T12:23:17.130Z,25.40
2022-12-27T12:26:04.004Z,23.70
2022-12-27T12:29:01.784Z,22.10
2022-12-27T12:31:42.387Z,22.60
2022-12-27T12:34:38.691Z,22.90
2022-12-27T12:38:03.052Z,22.80
2022-12-27T12:41:28.879Z,22.50
2022-12-27T12:44:39.561Z,22.70
2022-12-27T12:47:25.201Z,23.00
2022-12-27T12:50:18.007Z,22.50
2022-12-27T12:53:07.713Z,22.10
2022-12-27T12:56:05.861Z,21.40
2022-12-27T12:59:00.023Z,22.40
2022-12-27T13:01:57.792Z,19.50
2022-12-27T13:05:03.084Z,24.30
2022-12-27T13:08:11.239Z,19.90
2022-12-27T13:11:14.327Z,21.20
2022-12-27T13:14:04.883Z,18.90
2022-12-27T13:17:01.639Z,20.50
2022-12-27T13:20:01.804Z,20.60
2022-12-27T13:23:22.862Z,20.60
2022-12-27T13:26:09.027Z,19.40
2022-12-27T13:28:46.564Z,18.50
2022-12-27T13:31:36.429Z,19.50
2022-12-27T13:34:19.719Z,19.80
2022-12-27T13:37:09.176Z,19.60
2022-12-27T13:40:11.251Z,16.70
2022-12-27T13:43:27.108Z,16.10
2022-12-27T13:46:23.387Z,15.30
2022-12-27T13:49:32.506Z,12.20
2022-12-27T13:52:25.131Z,12.00
2022-12-27T13:55:14.571Z,12.60
2022-12-27T14:00:52.444Z,12.10
2022-12-27T14:03:43.204Z,12.40
2022-12-27T14:06:49.625Z,12.70
2022-12-27T14:09:53.854Z,13.10
2022-12-27T14:12:50.906Z,12.20
2022-12-27T14:15:26.520Z,13.10
2022-12-27T14:18:07.515Z,13.60
2022-12-27T14:20:45.117Z,14.30
2022-12-27T14:23:46.976Z,13.90
2022-12-27T14:26:49.963Z,13.70
2022-12-27T14:29:55.965Z,12.90
2022-12-27T14:32:39.888Z,12.30
2022-12-27T14:35:58.811Z,12.70
2022-12-27T14:38:36.310Z,12.70
2022-12-27T14:41:21.285Z,11.20
2022-12-27T14:44:24.187Z,10.40
2022-12-27T14:47:15.082Z,9.00
2022-12-27T14:50:00.208Z,8.40
2022-12-27T14:52:59.967Z,7.60
2022-12-27T14:55:59.162Z,8.40
2022-12-27T14:59:06.152Z,7.30
2022-12-27T15:02:26.318Z,8.20
2022-12-27T15:05:10.625Z,6.60
2022-12-27T15:08:21.166Z,6.30
2022-12-27T15:10:49.789Z,5.60
2022-12-27T15:14:01.077Z,5.40
2022-12-27T15:16:48.180Z,5.00
2022-12-27T15:19:56.663Z,4.70
2022-12-27T15:22:50.657Z,4.70
2022-12-27T15:25:59.376Z,5.00
2022-12-27T15:29:05.025Z,4.40
2022-12-27T15:32:26.349Z,4.10
2022-12-27T15:35:26.462Z,3.30
2022-12-27T15:38:54.126Z,4.00
2022-12-27T15:42:25.593Z,3.00
2022-12-27T15:45:12.196Z,3.00
2022-12-27T15:47:49.786Z,2.40
2022-12-27T15:50:51.650Z,2.40
2022-12-27T15:53:59.554Z,2.40
2022-12-27T15:56:48.702Z,2.70
2022-12-27T15:59:35.836Z,2.10
2022-12-27T16:02:34.024Z,1.70
2022-12-27T16:05:09.229Z,1.50
2022-12-27T16:07:42.453Z,1.30
2022-12-27T16:10:35.832Z,1.60
2022-12-27T16:13:13.411Z,1.80
2022-12-27T16:15:45.488Z,1.70
2022-12-27T16:18:17.223Z,1.70
2022-12-27T16:21:25.646Z,1.40
2022-12-27T16:24:13.709Z,1.50
2022-12-27T16:27:05.712Z,1.70
2022-12-27T16:29:37.479Z,1.70
2022-12-27T16:32:25.425Z,1.90
2022-12-27T16:35:09.796Z,1.70
2022-12-27T16:37:45.344Z,1.70
2022-12-27T16:40:45.113Z,1.80
2022-12-27T16:43:19.752Z,1.80
2022-12-27T16:46:06.700Z,2.30
2022-12-27T16:48:59.198Z,1.90
2022-12-27T16:52:48.182Z,2.00
2022-12-27T16:55:44.807Z,1.70
2022-12-27T16:58:24.564Z,1.80
2022-12-27T17:00:56.728Z,1.90
2022-12-27T17:03:35.614Z,2.00
2022-12-27T17:06:33.654Z,2.00
2022-12-27T17:09:09.622Z,1.80
2022-12-27T17:11:50.914Z,1.90
2022-12-27T17:14:26.073Z,1.80
2022-12-27T17:17:00.768Z,2.10
2022-12-27T17:19:47.840Z,2.20
2022-12-27T17:22:18.680Z,2.00
2022-12-27T17:24:49.103Z,2.00
2022-12-27T17:27:57.260Z,3.10
2022-12-27T17:30:30.099Z,2.50
2022-12-27T17:33:44.260Z,3.30
2022-12-27T17:36:18.518Z,2.50
2022-12-27T17:39:22.891Z,2.50
2022-12-27T17:42:43.192Z,2.70
2022-12-27T17:45:59.963Z,2.70
2022-12-27T17:48:31.999Z,2.50
2022-12-27T17:51:06.100Z,2.80
2022-12-27T17:53:53.603Z,3.00
2022-12-27T17:56:44.099Z,3.00
2022-12-27T17:59:23.768Z,2.60
2022-12-27T18:02:04.644Z,3.10
2022-12-27T18:04:42.471Z,2.70
2022-12-27T18:07:15.093Z,2.80
2022-12-27T18:09:48.329Z,2.70
2022-12-27T18:12:32.648Z,2.80
2022-12-27T18:15:07.183Z,2.80
2022-12-27T18:17:43.415Z,3.70
2022-12-27T18:20:27.895Z,2.70
2022-12-27T18:23:03.312Z,2.90
2022-12-27T18:25:49.740Z,3.00
2022-12-27T18:28:34.646Z,2.70
2022-12-27T18:31:48.912Z,3.30
2022-12-27T18:34:48.653Z,2.60
2022-12-27T18:37:23.617Z,2.80
2022-12-27T18:40:00.708Z,2.90
2022-12-27T18:42:44.982Z,3.20
2022-12-27T18:45:23.929Z,2.90
2022-12-27T18:47:56.007Z,3.10
2022-12-27T18:50:32.365Z,2.70
2022-12-27T18:53:31.474Z,2.30
2022-12-27T18:56:22.185Z,2.50
2022-12-27T18:59:16.938Z,2.30
2022-12-27T19:01:48.403Z,2.40
2022-12-27T19:04:17.453Z,2.30
2022-12-27T19:07:01.146Z,2.30
2022-12-27T19:09:37.105Z,2.50
2022-12-27T19:12:23.488Z,1.90
2022-12-27T19:14:52.912Z,2.10
2022-12-27T19:17:30.802Z,2.20
2022-12-27T19:20:06.770Z,2.20
2022-12-27T19:22:48.380Z,2.00
2022-12-27T19:25:28.699Z,2.40
2022-12-27T19:28:12.767Z,2.30
2022-12-27T19:31:04.405Z,2.40
2022-12-27T19:33:35.713Z,2.90
2022-12-27T19:36:08.006Z,2.60
2022-12-27T19:38:42.727Z,2.80
2022-12-27T19:43:46.914Z,2.20
2022-12-27T19:46:16.094Z,2.40
2022-12-27T19:49:07.547Z,2.20
2022-12-27T19:51:36.453Z,2.30
2022-12-27T19:54:18.610Z,2.30
2022-12-27T19:56:48.251Z,2.30
2022-12-27T19:59:23.396Z,2.00
2022-12-27T20:01:52.576Z,2.20
2022-12-27T20:04:21.608Z,2.60
2022-12-27T20:06:50.366Z,3.00
2022-12-27T20:09:20.341Z,2.20
2022-12-27T20:11:50.460Z,1.90
2022-12-27T20:14:19.629Z,2.20
2022-12-27T20:16:48.671Z,2.20
2022-12-27T20:19:18.399Z,1.80
2022-12-27T20:24:15.905Z,2.90
2022-12-27T20:26:45.038Z,2.10
2022-12-27T20:29:15.451Z,2.10
2022-12-27T20:31:48.910Z,2.50
2022-12-27T20:34:18.054Z,2.20
2022-12-27T20:36:46.806Z,2.00
2022-12-27T20:39:15.536Z,2.20
2022-12-27T20:41:44.506Z,2.00
2022-12-27T20:44:15.124Z,2.20
2022-12-27T20:46:43.837Z,2.10
2022-12-27T20:49:12.799Z,1.70
2022-12-27T20:51:42.093Z,1.70
2022-12-27T20:54:13.283Z,1.90
2022-12-27T20:56:42.133Z,2.00
2022-12-27T20:59:10.922Z,2.30
2022-12-27T21:01:39.717Z,2.10
2022-12-27T21:04:10.315Z,2.20
2022-12-27T21:06:39.145Z,2.60
2022-12-27T21:09:09.041Z,2.50
2022-12-27T21:11:37.826Z,2.50
2022-12-27T21:14:06.710Z,2.40
2022-12-27T21:16:36.102Z,2.30
2022-12-27T21:19:06.848Z,2.30
2022-12-27T21:21:38.402Z,2.10
2022-12-27T21:24:12.339Z,2.30
2022-12-27T21:26:41.827Z,2.30
2022-12-27T21:29:12.421Z,2.40
2022-12-27T21:31:41.233Z,2.90
2022-12-27T21:34:10.136Z,2.50
2022-12-27T21:36:39.029Z,2.00
2022-12-27T21:39:08.040Z,2.90
2022-12-27T21:41:40.611Z,2.20
2022-12-27T21:44:09.977Z,2.30
2022-12-27T21:46:42.090Z,2.30
2022-12-27T21:49:13.487Z,2.40
2022-12-27T21:51:43.871Z,2.50
2022-12-27T21:54:14.113Z,2.40
2022-12-27T21:56:42.942Z,2.40
2022-12-27T21:59:12.272Z,2.40
2022-12-27T22:01:50.930Z,3.70
2022-12-27T22:04:22.027Z,2.90
2022-12-27T22:06:51.003Z,2.60
2022-12-27T22:09:19.902Z,2.60
2022-12-27T22:11:48.829Z,2.30
2022-12-27T22:14:21.781Z,2.40
2022-12-27T22:16:52.197Z,2.60
2022-12-27T22:19:20.888Z,2.20
2022-12-27T22:21:49.774Z,2.50
2022-12-27T22:24:20.260Z,2.60
2022-12-27T22:26:50.586Z,2.30
2022-12-27T22:29:19.709Z,2.60
2022-12-27T22:31:48.327Z,2.50
2022-12-27T22:34:16.981Z,2.40
2022-12-27T22:36:45.876Z,1.90
2022-12-27T22:39:14.662Z,2.20
2022-12-27T22:41:43.451Z,2.30
2022-12-27T22:44:15.413Z,2.50
2022-12-27T22:47:15.793Z,2.30
2022-12-27T22:49:33.077Z,2.60
2022-12-27T22:52:02.052Z,2.50
2022-12-27T22:55:04.199Z,2.40
2022-12-27T22:57:19.594Z,2.50
2022-12-27T22:59:48.383Z,2.60
2022-12-27T23:02:17.236Z,2.80
2022-12-27T23:04:46.304Z,2.60
2022-12-27T23:07:14.949Z,2.40
2022-12-27T23:09:43.894Z,2.40
2022-12-27T23:12:13.909Z,2.30
2022-12-27T23:14:42.857Z,2.30
2022-12-27T23:17:11.566Z,2.10
2022-12-27T23:19:40.534Z,2.10
2022-12-27T23:22:09.731Z,2.60
2022-12-27T23:24:38.326Z,2.00
2022-12-27T23:27:06.953Z,2.10
2022-12-27T23:29:35.886Z,2.20
2022-12-27T23:32:04.910Z,1.90
2022-12-27T23:34:33.568Z,2.10
2022-12-27T23:37:02.202Z,1.70
2022-12-27T23:39:30.937Z,1.80
2022-12-27T23:41:59.723Z,1.90
2022-12-27T23:44:32.964Z,2.00
2022-12-27T23:47:05.799Z,1.80
2022-12-27T23:49:35.168Z,1.70
2022-12-27T23:52:04.409Z,2.00
2022-12-27T23:54:33.497Z,1.80
2022-12-27T23:57:20.322Z,1.70
2022-12-27T23:59:51.958Z,1.50
